KMAF

Midland International Air and Space Port Airport

Midland, Texas, USA
METAR KMAF 211953Z 17016KT 10SM CLR 20/00 A2983 RMK AO2 PRESFR SLP074 T02000000 $
Observed Flight Rules
Jan-21 @ 19:53 UTC (15 minutes ago) Visual Flight Rules
Wind Visibility Clouds
170° at 16 knots 10 miles
  • Clear skies
Temperatures Readings
Current 20°C / 68°F
Dewpoint 0°C / 32°F
Humidity 26%
Altimeter 29.83" Hg
Pressure 1007.4 hPa
Elevation 874
METAR KMAF 211953Z 17016KT 10SM CLR 20/00 A2983 RMK AO2 PRESFR SLP074 T02000000 $
Observed Flight Rules
Jan-21 @ 19:53 UTC
(15 minutes ago)
VFR
Wind Visibility
170° at 16 knots 10 miles
Clouds
  • Clear skies
Temperature Dewpoint
20°C / 68°F 0°C / 32°F
Humidity Altimeter Pressure
26% 29.83" Hg 1007.4 hPa